sensor_id;sensor_type;location;lat;lon;timestamp;P1;durP1;ratioP1;P2;durP2;ratioP2
56637;SDS011;42507;51.982;20.140;2023-01-05T00:01:37;7.17;;;4.17;;
56637;SDS011;42507;51.982;20.140;2023-01-05T00:04:04;5.50;;;4.20;;
56637;SDS011;42507;51.982;20.140;2023-01-05T00:06:31;5.22;;;3.85;;
56637;SDS011;42507;51.982;20.140;2023-01-05T00:09:05;5.45;;;3.70;;
56637;SDS011;42507;51.982;20.140;2023-01-05T00:11:35;4.25;;;3.52;;
56637;SDS011;42507;51.982;20.140;2023-01-05T00:14:21;5.42;;;3.30;;
56637;SDS011;42507;51.982;20.140;2023-01-05T00:17:12;6.00;;;3.80;;
56637;SDS011;42507;51.982;20.140;2023-01-05T00:19:59;5.30;;;3.58;;
56637;SDS011;42507;51.982;20.140;2023-01-05T00:22:50;5.35;;;3.62;;
56637;SDS011;42507;51.982;20.140;2023-01-05T00:25:26;5.97;;;4.08;;
56637;SDS011;42507;51.982;20.140;2023-01-05T00:27:54;5.85;;;3.75;;
56637;SDS011;42507;51.982;20.140;2023-01-05T00:30:43;6.35;;;4.00;;
56637;SDS011;42507;51.982;20.140;2023-01-05T00:33:12;4.25;;;3.17;;
56637;SDS011;42507;51.982;20.140;2023-01-05T00:35:40;5.95;;;3.77;;
56637;SDS011;42507;51.982;20.140;2023-01-05T00:38:07;5.17;;;3.83;;
56637;SDS011;42507;51.982;20.140;2023-01-05T00:40:34;4.33;;;3.12;;
56637;SDS011;42507;51.982;20.140;2023-01-05T00:43:01;7.42;;;3.67;;
56637;SDS011;42507;51.982;20.140;2023-01-05T00:45:27;3.02;;;2.72;;
56637;SDS011;42507;51.982;20.140;2023-01-05T00:47:54;5.22;;;3.40;;
56637;SDS011;42507;51.982;20.140;2023-01-05T00:50:21;4.05;;;3.05;;
56637;SDS011;42507;51.982;20.140;2023-01-05T00:52:48;3.45;;;2.77;;
56637;SDS011;42507;51.982;20.140;2023-01-05T00:55:14;3.20;;;2.83;;
56637;SDS011;42507;51.982;20.140;2023-01-05T00:57:41;5.15;;;3.10;;
56637;SDS011;42507;51.982;20.140;2023-01-05T01:00:13;4.12;;;2.77;;
56637;SDS011;42507;51.982;20.140;2023-01-05T01:02:42;3.33;;;2.70;;
56637;SDS011;42507;51.982;20.140;2023-01-05T01:05:08;3.50;;;2.83;;
56637;SDS011;42507;51.982;20.140;2023-01-05T01:07:35;5.45;;;3.00;;
56637;SDS011;42507;51.982;20.140;2023-01-05T01:10:03;4.22;;;3.10;;
56637;SDS011;42507;51.982;20.140;2023-01-05T01:12:31;4.60;;;3.15;;
56637;SDS011;42507;51.982;20.140;2023-01-05T01:14:57;5.95;;;3.40;;
56637;SDS011;42507;51.982;20.140;2023-01-05T01:17:23;3.90;;;2.98;;
56637;SDS011;42507;51.982;20.140;2023-01-05T01:19:50;4.45;;;3.27;;
56637;SDS011;42507;51.982;20.140;2023-01-05T01:22:16;4.60;;;2.80;;
56637;SDS011;42507;51.982;20.140;2023-01-05T01:24:42;5.05;;;2.77;;
56637;SDS011;42507;51.982;20.140;2023-01-05T01:27:10;4.50;;;2.42;;
56637;SDS011;42507;51.982;20.140;2023-01-05T01:29:38;3.25;;;2.85;;
56637;SDS011;42507;51.982;20.140;2023-01-05T01:32:04;3.83;;;2.98;;
56637;SDS011;42507;51.982;20.140;2023-01-05T01:34:31;4.03;;;3.02;;
56637;SDS011;42507;51.982;20.140;2023-01-05T01:36:58;3.72;;;2.70;;
56637;SDS011;42507;51.982;20.140;2023-01-05T01:39:26;3.27;;;2.30;;
56637;SDS011;42507;51.982;20.140;2023-01-05T01:41:54;3.40;;;2.58;;
56637;SDS011;42507;51.982;20.140;2023-01-05T01:52:46;3.05;;;2.20;;
56637;SDS011;42507;51.982;20.140;2023-01-05T01:55:14;3.35;;;2.33;;
56637;SDS011;42507;51.982;20.140;2023-01-05T01:57:41;3.98;;;2.90;;
56637;SDS011;42507;51.982;20.140;2023-01-05T02:00:10;2.12;;;1.92;;
56637;SDS011;42507;51.982;20.140;2023-01-05T02:02:45;5.08;;;2.47;;
56637;SDS011;42507;51.982;20.140;2023-01-05T02:05:16;3.75;;;2.75;;
56637;SDS011;42507;51.982;20.140;2023-01-05T02:07:45;3.20;;;2.70;;
56637;SDS011;42507;51.982;20.140;2023-01-05T02:10:17;3.05;;;2.45;;
56637;SDS011;42507;51.982;20.140;2023-01-05T02:15:36;3.75;;;2.50;;
56637;SDS011;42507;51.982;20.140;2023-01-05T02:24:10;2.58;;;2.20;;
56637;SDS011;42507;51.982;20.140;2023-01-05T02:33:39;3.25;;;2.30;;
56637;SDS011;42507;51.982;20.140;2023-01-05T02:39:05;3.02;;;2.00;;
56637;SDS011;42507;51.982;20.140;2023-01-05T02:41:43;3.65;;;1.75;;
56637;SDS011;42507;51.982;20.140;2023-01-05T02:44:26;2.92;;;1.80;;
56637;SDS011;42507;51.982;20.140;2023-01-05T02:47:01;2.20;;;1.42;;
56637;SDS011;42507;51.982;20.140;2023-01-05T02:49:33;3.17;;;2.00;;
56637;SDS011;42507;51.982;20.140;2023-01-05T02:52:04;3.25;;;1.65;;
56637;SDS011;42507;51.982;20.140;2023-01-05T02:54:34;2.15;;;1.50;;
56637;SDS011;42507;51.982;20.140;2023-01-05T02:57:11;1.75;;;1.60;;
56637;SDS011;42507;51.982;20.140;2023-01-05T03:02:18;1.90;;;1.70;;
56637;SDS011;42507;51.982;20.140;2023-01-05T03:04:52;2.20;;;1.82;;
56637;SDS011;42507;51.982;20.140;2023-01-05T03:07:23;3.20;;;1.90;;
56637;SDS011;42507;51.982;20.140;2023-01-05T03:09:53;2.80;;;1.82;;
56637;SDS011;42507;51.982;20.140;2023-01-05T03:15:15;3.40;;;1.82;;
56637;SDS011;42507;51.982;20.140;2023-01-05T03:17:59;2.67;;;1.80;;
56637;SDS011;42507;51.982;20.140;2023-01-05T03:20:38;2.45;;;1.70;;
56637;SDS011;42507;51.982;20.140;2023-01-05T03:23:08;3.20;;;1.72;;
56637;SDS011;42507;51.982;20.140;2023-01-05T03:25:55;3.42;;;1.82;;
56637;SDS011;42507;51.982;20.140;2023-01-05T03:28:52;2.00;;;1.50;;
56637;SDS011;42507;51.982;20.140;2023-01-05T03:37:57;2.40;;;1.47;;
56637;SDS011;42507;51.982;20.140;2023-01-05T03:40:39;2.95;;;1.55;;
56637;SDS011;42507;51.982;20.140;2023-01-05T03:43:06;2.00;;;1.40;;
56637;SDS011;42507;51.982;20.140;2023-01-05T03:45:38;1.45;;;1.25;;
56637;SDS011;42507;51.982;20.140;2023-01-05T03:50:34;2.72;;;1.70;;
56637;SDS011;42507;51.982;20.140;2023-01-05T03:53:01;1.60;;;1.25;;
56637;SDS011;42507;51.982;20.140;2023-01-05T03:55:28;1.40;;;1.30;;
56637;SDS011;42507;51.982;20.140;2023-01-05T03:57:55;1.37;;;1.20;;
56637;SDS011;42507;51.982;20.140;2023-01-05T04:00:22;4.12;;;1.50;;
56637;SDS011;42507;51.982;20.140;2023-01-05T04:02:51;1.65;;;1.20;;
56637;SDS011;42507;51.982;20.140;2023-01-05T04:05:19;1.00;;;0.90;;
56637;SDS011;42507;51.982;20.140;2023-01-05T04:07:46;1.90;;;1.10;;
56637;SDS011;42507;51.982;20.140;2023-01-05T04:10:13;3.17;;;1.20;;
56637;SDS011;42507;51.982;20.140;2023-01-05T04:12:41;3.00;;;1.37;;
56637;SDS011;42507;51.982;20.140;2023-01-05T04:15:09;6.12;;;2.00;;
56637;SDS011;42507;51.982;20.140;2023-01-05T04:17:36;3.95;;;1.50;;
56637;SDS011;42507;51.982;20.140;2023-01-05T04:20:03;4.42;;;1.60;;
56637;SDS011;42507;51.982;20.140;2023-01-05T04:22:31;4.78;;;1.60;;
56637;SDS011;42507;51.982;20.140;2023-01-05T04:24:58;3.77;;;1.30;;
56637;SDS011;42507;51.982;20.140;2023-01-05T04:27:24;5.20;;;1.52;;
56637;SDS011;42507;51.982;20.140;2023-01-05T04:29:51;1.40;;;0.93;;
56637;SDS011;42507;51.982;20.140;2023-01-05T04:32:18;2.55;;;1.12;;
56637;SDS011;42507;51.982;20.140;2023-01-05T04:34:44;2.40;;;0.82;;
56637;SDS011;42507;51.982;20.140;2023-01-05T04:37:11;2.35;;;1.05;;
56637;SDS011;42507;51.982;20.140;2023-01-05T04:39:38;2.47;;;0.93;;
56637;SDS011;42507;51.982;20.140;2023-01-05T04:42:06;5.58;;;1.27;;
56637;SDS011;42507;51.982;20.140;2023-01-05T04:44:32;3.62;;;1.00;;
56637;SDS011;42507;51.982;20.140;2023-01-05T04:47:00;2.25;;;0.82;;
56637;SDS011;42507;51.982;20.140;2023-01-05T04:49:27;1.85;;;1.00;;
56637;SDS011;42507;51.982;20.140;2023-01-05T04:51:54;2.02;;;0.70;;
56637;SDS011;42507;51.982;20.140;2023-01-05T04:54:21;1.40;;;0.80;;
56637;SDS011;42507;51.982;20.140;2023-01-05T04:56:48;1.20;;;0.70;;
56637;SDS011;42507;51.982;20.140;2023-01-05T04:59:14;1.12;;;0.60;;
56637;SDS011;42507;51.982;20.140;2023-01-05T05:01:41;0.70;;;0.60;;
56637;SDS011;42507;51.982;20.140;2023-01-05T05:04:09;1.50;;;0.85;;
56637;SDS011;42507;51.982;20.140;2023-01-05T05:06:36;1.12;;;0.57;;
56637;SDS011;42507;51.982;20.140;2023-01-05T05:09:03;0.60;;;0.60;;
56637;SDS011;42507;51.982;20.140;2023-01-05T05:11:30;4.10;;;0.93;;
56637;SDS011;42507;51.982;20.140;2023-01-05T05:13:57;1.12;;;0.75;;
56637;SDS011;42507;51.982;20.140;2023-01-05T05:16:23;1.22;;;0.70;;
56637;SDS011;42507;51.982;20.140;2023-01-05T05:18:51;1.20;;;0.80;;
56637;SDS011;42507;51.982;20.140;2023-01-05T05:21:19;1.57;;;0.85;;
56637;SDS011;42507;51.982;20.140;2023-01-05T05:23:45;2.22;;;0.78;;
56637;SDS011;42507;51.982;20.140;2023-01-05T05:26:12;1.55;;;0.72;;
56637;SDS011;42507;51.982;20.140;2023-01-05T05:28:38;5.22;;;0.95;;
56637;SDS011;42507;51.982;20.140;2023-01-05T05:31:05;0.68;;;0.60;;
56637;SDS011;42507;51.982;20.140;2023-01-05T05:33:31;1.45;;;0.90;;
56637;SDS011;42507;51.982;20.140;2023-01-05T05:35:57;1.22;;;0.80;;
56637;SDS011;42507;51.982;20.140;2023-01-05T05:38:23;3.25;;;1.30;;
56637;SDS011;42507;51.982;20.140;2023-01-05T05:40:50;2.62;;;1.20;;
56637;SDS011;42507;51.982;20.140;2023-01-05T05:43:16;2.00;;;1.05;;
56637;SDS011;42507;51.982;20.140;2023-01-05T05:45:42;2.05;;;0.95;;
56637;SDS011;42507;51.982;20.140;2023-01-05T05:48:10;0.82;;;0.75;;
56637;SDS011;42507;51.982;20.140;2023-01-05T05:50:36;2.62;;;0.98;;
56637;SDS011;42507;51.982;20.140;2023-01-05T05:53:04;2.67;;;0.90;;
56637;SDS011;42507;51.982;20.140;2023-01-05T05:55:31;1.90;;;1.12;;
56637;SDS011;42507;51.982;20.140;2023-01-05T05:57:59;2.27;;;1.20;;
56637;SDS011;42507;51.982;20.140;2023-01-05T06:00:25;2.70;;;1.22;;
56637;SDS011;42507;51.982;20.140;2023-01-05T06:02:52;2.35;;;1.30;;
56637;SDS011;42507;51.982;20.140;2023-01-05T06:05:18;1.95;;;1.12;;
56637;SDS011;42507;51.982;20.140;2023-01-05T06:07:44;2.00;;;1.35;;
56637;SDS011;42507;51.982;20.140;2023-01-05T06:10:10;3.65;;;1.70;;
56637;SDS011;42507;51.982;20.140;2023-01-05T06:12:37;2.87;;;1.20;;
56637;SDS011;42507;51.982;20.140;2023-01-05T06:15:03;3.50;;;1.25;;
56637;SDS011;42507;51.982;20.140;2023-01-05T06:17:31;1.92;;;1.20;;
56637;SDS011;42507;51.982;20.140;2023-01-05T06:19:57;2.50;;;1.15;;
56637;SDS011;42507;51.982;20.140;2023-01-05T06:22:23;3.50;;;1.30;;
56637;SDS011;42507;51.982;20.140;2023-01-05T06:24:50;3.75;;;2.47;;
56637;SDS011;42507;51.982;20.140;2023-01-05T06:27:16;3.12;;;1.30;;
56637;SDS011;42507;51.982;20.140;2023-01-05T06:29:43;2.27;;;1.17;;
56637;SDS011;42507;51.982;20.140;2023-01-05T06:32:09;2.85;;;1.30;;
56637;SDS011;42507;51.982;20.140;2023-01-05T06:34:36;3.70;;;1.40;;
56637;SDS011;42507;51.982;20.140;2023-01-05T06:37:02;3.72;;;1.50;;
56637;SDS011;42507;51.982;20.140;2023-01-05T06:39:30;2.27;;;1.30;;
56637;SDS011;42507;51.982;20.140;2023-01-05T06:41:57;3.15;;;1.40;;
56637;SDS011;42507;51.982;20.140;2023-01-05T06:44:23;4.35;;;1.35;;
56637;SDS011;42507;51.982;20.140;2023-01-05T06:46:50;3.40;;;1.35;;
56637;SDS011;42507;51.982;20.140;2023-01-05T06:49:16;2.22;;;1.85;;
56637;SDS011;42507;51.982;20.140;2023-01-05T06:51:42;3.98;;;1.80;;
56637;SDS011;42507;51.982;20.140;2023-01-05T06:54:09;3.80;;;1.67;;
56637;SDS011;42507;51.982;20.140;2023-01-05T06:56:35;2.40;;;1.60;;
56637;SDS011;42507;51.982;20.140;2023-01-05T06:59:02;3.92;;;1.87;;
56637;SDS011;42507;51.982;20.140;2023-01-05T07:01:28;3.85;;;2.12;;
56637;SDS011;42507;51.982;20.140;2023-01-05T07:03:55;3.87;;;2.05;;
56637;SDS011;42507;51.982;20.140;2023-01-05T07:06:21;3.27;;;2.05;;
56637;SDS011;42507;51.982;20.140;2023-01-05T07:08:47;4.03;;;2.30;;
56637;SDS011;42507;51.982;20.140;2023-01-05T07:11:14;5.62;;;2.77;;
56637;SDS011;42507;51.982;20.140;2023-01-05T07:13:40;4.37;;;3.02;;
56637;SDS011;42507;51.982;20.140;2023-01-05T07:16:06;6.08;;;2.90;;
56637;SDS011;42507;51.982;20.140;2023-01-05T07:18:33;10.15;;;3.05;;
56637;SDS011;42507;51.982;20.140;2023-01-05T07:20:59;7.15;;;2.60;;
56637;SDS011;42507;51.982;20.140;2023-01-05T07:23:25;5.03;;;2.90;;
56637;SDS011;42507;51.982;20.140;2023-01-05T07:25:51;7.45;;;3.25;;
56637;SDS011;42507;51.982;20.140;2023-01-05T07:28:18;6.70;;;3.12;;
56637;SDS011;42507;51.982;20.140;2023-01-05T07:30:49;6.45;;;2.47;;
56637;SDS011;42507;51.982;20.140;2023-01-05T07:33:17;6.83;;;2.67;;
56637;SDS011;42507;51.982;20.140;2023-01-05T07:35:43;8.00;;;3.20;;
56637;SDS011;42507;51.982;20.140;2023-01-05T07:38:10;4.03;;;2.80;;
56637;SDS011;42507;51.982;20.140;2023-01-05T07:40:36;6.78;;;2.62;;
56637;SDS011;42507;51.982;20.140;2023-01-05T07:43:02;4.75;;;2.90;;
56637;SDS011;42507;51.982;20.140;2023-01-05T07:45:29;10.98;;;3.08;;
56637;SDS011;42507;51.982;20.140;2023-01-05T07:47:56;5.00;;;2.72;;
56637;SDS011;42507;51.982;20.140;2023-01-05T07:50:22;9.13;;;3.52;;
56637;SDS011;42507;51.982;20.140;2023-01-05T07:52:48;5.78;;;2.70;;
56637;SDS011;42507;51.982;20.140;2023-01-05T07:55:14;6.00;;;2.40;;
56637;SDS011;42507;51.982;20.140;2023-01-05T07:57:41;4.62;;;2.30;;
56637;SDS011;42507;51.982;20.140;2023-01-05T08:00:08;5.42;;;2.50;;
56637;SDS011;42507;51.982;20.140;2023-01-05T08:02:39;6.85;;;2.40;;
56637;SDS011;42507;51.982;20.140;2023-01-05T08:05:07;7.55;;;2.77;;
56637;SDS011;42507;51.982;20.140;2023-01-05T08:07:34;3.42;;;1.80;;
56637;SDS011;42507;51.982;20.140;2023-01-05T08:10:01;7.45;;;2.10;;
56637;SDS011;42507;51.982;20.140;2023-01-05T08:12:47;4.30;;;1.82;;
56637;SDS011;42507;51.982;20.140;2023-01-05T08:15:31;5.20;;;1.90;;
56637;SDS011;42507;51.982;20.140;2023-01-05T08:17:58;5.33;;;2.00;;
56637;SDS011;42507;51.982;20.140;2023-01-05T08:20:24;4.87;;;1.98;;
56637;SDS011;42507;51.982;20.140;2023-01-05T08:22:51;4.70;;;1.95;;
56637;SDS011;42507;51.982;20.140;2023-01-05T08:25:18;6.05;;;2.10;;
56637;SDS011;42507;51.982;20.140;2023-01-05T08:27:45;4.12;;;1.90;;
56637;SDS011;42507;51.982;20.140;2023-01-05T08:30:12;6.00;;;1.95;;
56637;SDS011;42507;51.982;20.140;2023-01-05T08:32:39;4.53;;;1.50;;
56637;SDS011;42507;51.982;20.140;2023-01-05T08:35:06;4.58;;;1.52;;
56637;SDS011;42507;51.982;20.140;2023-01-05T08:37:34;4.37;;;1.42;;
56637;SDS011;42507;51.982;20.140;2023-01-05T08:40:00;3.65;;;1.50;;
56637;SDS011;42507;51.982;20.140;2023-01-05T08:42:27;5.37;;;1.85;;
56637;SDS011;42507;51.982;20.140;2023-01-05T08:44:53;7.03;;;2.10;;
56637;SDS011;42507;51.982;20.140;2023-01-05T08:47:19;8.40;;;2.17;;
56637;SDS011;42507;51.982;20.140;2023-01-05T08:49:46;4.37;;;1.75;;
56637;SDS011;42507;51.982;20.140;2023-01-05T08:52:12;5.78;;;1.80;;
56637;SDS011;42507;51.982;20.140;2023-01-05T08:54:38;5.62;;;1.60;;
56637;SDS011;42507;51.982;20.140;2023-01-05T08:57:04;6.40;;;1.70;;
56637;SDS011;42507;51.982;20.140;2023-01-05T08:59:31;3.90;;;1.87;;
56637;SDS011;42507;51.982;20.140;2023-01-05T09:01:57;6.95;;;1.92;;
56637;SDS011;42507;51.982;20.140;2023-01-05T09:04:23;9.33;;;2.72;;
56637;SDS011;42507;51.982;20.140;2023-01-05T09:06:52;6.30;;;2.20;;
56637;SDS011;42507;51.982;20.140;2023-01-05T09:09:19;6.67;;;1.62;;
56637;SDS011;42507;51.982;20.140;2023-01-05T09:11:47;2.87;;;1.60;;
56637;SDS011;42507;51.982;20.140;2023-01-05T09:14:13;9.85;;;2.37;;
56637;SDS011;42507;51.982;20.140;2023-01-05T09:16:39;4.70;;;1.80;;
56637;SDS011;42507;51.982;20.140;2023-01-05T09:19:06;8.63;;;2.72;;
56637;SDS011;42507;51.982;20.140;2023-01-05T09:21:33;7.08;;;2.27;;
56637;SDS011;42507;51.982;20.140;2023-01-05T09:24:00;6.62;;;1.77;;
56637;SDS011;42507;51.982;20.140;2023-01-05T09:26:26;3.72;;;1.70;;
56637;SDS011;42507;51.982;20.140;2023-01-05T09:28:53;5.78;;;1.50;;
56637;SDS011;42507;51.982;20.140;2023-01-05T09:31:20;3.50;;;1.30;;
56637;SDS011;42507;51.982;20.140;2023-01-05T09:33:48;2.52;;;1.10;;
56637;SDS011;42507;51.982;20.140;2023-01-05T09:36:15;5.55;;;1.60;;
56637;SDS011;42507;51.982;20.140;2023-01-05T09:38:47;4.83;;;1.37;;
56637;SDS011;42507;51.982;20.140;2023-01-05T09:43:57;4.72;;;1.60;;
56637;SDS011;42507;51.982;20.140;2023-01-05T09:46:33;4.97;;;1.52;;
56637;SDS011;42507;51.982;20.140;2023-01-05T09:49:06;4.30;;;1.55;;
56637;SDS011;42507;51.982;20.140;2023-01-05T09:51:38;5.00;;;1.52;;
56637;SDS011;42507;51.982;20.140;2023-01-05T09:54:05;3.83;;;1.57;;
56637;SDS011;42507;51.982;20.140;2023-01-05T09:56:38;4.35;;;1.90;;
56637;SDS011;42507;51.982;20.140;2023-01-05T09:59:09;4.20;;;1.47;;
56637;SDS011;42507;51.982;20.140;2023-01-05T10:01:33;4.95;;;2.20;;
56637;SDS011;42507;51.982;20.140;2023-01-05T10:04:03;7.75;;;2.58;;
56637;SDS011;42507;51.982;20.140;2023-01-05T10:06:33;5.92;;;2.00;;
56637;SDS011;42507;51.982;20.140;2023-01-05T10:09:03;3.58;;;1.75;;
56637;SDS011;42507;51.982;20.140;2023-01-05T10:11:49;8.93;;;3.00;;
56637;SDS011;42507;51.982;20.140;2023-01-05T10:15:06;8.98;;;2.37;;
56637;SDS011;42507;51.982;20.140;2023-01-05T10:17:43;5.20;;;1.57;;
56637;SDS011;42507;51.982;20.140;2023-01-05T10:26:18;8.33;;;1.87;;
56637;SDS011;42507;51.982;20.140;2023-01-05T10:29:02;3.40;;;1.17;;
56637;SDS011;42507;51.982;20.140;2023-01-05T10:46:02;2.90;;;1.20;;
56637;SDS011;42507;51.982;20.140;2023-01-05T10:48:29;5.67;;;1.62;;
56637;SDS011;42507;51.982;20.140;2023-01-05T10:50:59;4.40;;;1.67;;
56637;SDS011;42507;51.982;20.140;2023-01-05T10:53:26;7.83;;;1.90;;
56637;SDS011;42507;51.982;20.140;2023-01-05T10:58:41;6.85;;;1.80;;
56637;SDS011;42507;51.982;20.140;2023-01-05T11:01:05;5.85;;;2.55;;
56637;SDS011;42507;51.982;20.140;2023-01-05T11:03:55;6.92;;;2.47;;
56637;SDS011;42507;51.982;20.140;2023-01-05T11:06:40;5.50;;;1.67;;
56637;SDS011;42507;51.982;20.140;2023-01-05T11:09:18;5.03;;;1.32;;
56637;SDS011;42507;51.982;20.140;2023-01-05T11:11:52;4.08;;;1.77;;
56637;SDS011;42507;51.982;20.140;2023-01-05T11:14:28;7.12;;;2.75;;
56637;SDS011;42507;51.982;20.140;2023-01-05T11:17:00;5.97;;;1.52;;
56637;SDS011;42507;51.982;20.140;2023-01-05T11:19:34;3.67;;;1.07;;
56637;SDS011;42507;51.982;20.140;2023-01-05T11:22:02;6.55;;;1.27;;
56637;SDS011;42507;51.982;20.140;2023-01-05T11:27:21;5.85;;;1.92;;
56637;SDS011;42507;51.982;20.140;2023-01-05T11:32:41;3.90;;;1.32;;
56637;SDS011;42507;51.982;20.140;2023-01-05T11:35:29;4.85;;;1.20;;
56637;SDS011;42507;51.982;20.140;2023-01-05T11:37:47;6.45;;;1.40;;
56637;SDS011;42507;51.982;20.140;2023-01-05T11:40:14;5.60;;;1.30;;
56637;SDS011;42507;51.982;20.140;2023-01-05T11:42:43;2.62;;;1.22;;
56637;SDS011;42507;51.982;20.140;2023-01-05T11:45:17;3.83;;;1.40;;
56637;SDS011;42507;51.982;20.140;2023-01-05T11:48:00;4.03;;;1.10;;
56637;SDS011;42507;51.982;20.140;2023-01-05T11:50:32;3.90;;;1.17;;
56637;SDS011;42507;51.982;20.140;2023-01-05T11:53:53;5.97;;;1.20;;
56637;SDS011;42507;51.982;20.140;2023-01-05T11:58:41;7.35;;;1.10;;
56637;SDS011;42507;51.982;20.140;2023-01-05T12:13:01;6.97;;;2.37;;
56637;SDS011;42507;51.982;20.140;2023-01-05T12:15:50;4.72;;;1.90;;
56637;SDS011;42507;51.982;20.140;2023-01-05T12:21:36;6.80;;;1.70;;
56637;SDS011;42507;51.982;20.140;2023-01-05T12:42:49;3.25;;;1.00;;
56637;SDS011;42507;51.982;20.140;2023-01-05T12:50:17;4.78;;;1.25;;
56637;SDS011;42507;51.982;20.140;2023-01-05T12:53:01;4.12;;;1.65;;
56637;SDS011;42507;51.982;20.140;2023-01-05T12:55:36;3.45;;;1.20;;
56637;SDS011;42507;51.982;20.140;2023-01-05T12:58:05;2.37;;;0.95;;
56637;SDS011;42507;51.982;20.140;2023-01-05T13:00:52;3.02;;;0.98;;
56637;SDS011;42507;51.982;20.140;2023-01-05T13:03:37;4.85;;;1.50;;
56637;SDS011;42507;51.982;20.140;2023-01-05T13:06:07;9.38;;;1.37;;
56637;SDS011;42507;51.982;20.140;2023-01-05T13:08:44;5.05;;;1.07;;
56637;SDS011;42507;51.982;20.140;2023-01-05T13:11:22;4.37;;;1.62;;
56637;SDS011;42507;51.982;20.140;2023-01-05T13:14:05;3.08;;;1.02;;
56637;SDS011;42507;51.982;20.140;2023-01-05T13:16:46;4.28;;;1.60;;
56637;SDS011;42507;51.982;20.140;2023-01-05T13:19:22;4.47;;;1.30;;
56637;SDS011;42507;51.982;20.140;2023-01-05T13:21:48;5.35;;;1.77;;
56637;SDS011;42507;51.982;20.140;2023-01-05T13:24:23;4.75;;;1.30;;
56637;SDS011;42507;51.982;20.140;2023-01-05T13:26:58;3.70;;;1.10;;
56637;SDS011;42507;51.982;20.140;2023-01-05T13:40:20;7.00;;;1.80;;
56637;SDS011;42507;51.982;20.140;2023-01-05T13:43:05;3.80;;;1.40;;
56637;SDS011;42507;51.982;20.140;2023-01-05T13:52:36;6.50;;;1.80;;
56637;SDS011;42507;51.982;20.140;2023-01-05T13:55:22;5.83;;;1.37;;
56637;SDS011;42507;51.982;20.140;2023-01-05T13:57:49;4.45;;;1.60;;
56637;SDS011;42507;51.982;20.140;2023-01-05T14:03:35;8.28;;;2.15;;
56637;SDS011;42507;51.982;20.140;2023-01-05T14:05:51;5.78;;;1.30;;
56637;SDS011;42507;51.982;20.140;2023-01-05T14:13:49;3.20;;;1.20;;
56637;SDS011;42507;51.982;20.140;2023-01-05T14:19:21;4.42;;;1.22;;
56637;SDS011;42507;51.982;20.140;2023-01-05T14:34:55;4.00;;;1.40;;
56637;SDS011;42507;51.982;20.140;2023-01-05T14:37:43;5.37;;;1.80;;
56637;SDS011;42507;51.982;20.140;2023-01-05T14:40:37;5.70;;;2.17;;
56637;SDS011;42507;51.982;20.140;2023-01-05T14:43:29;7.70;;;2.50;;
56637;SDS011;42507;51.982;20.140;2023-01-05T14:46:02;4.30;;;2.05;;
56637;SDS011;42507;51.982;20.140;2023-01-05T14:48:43;5.00;;;2.30;;
56637;SDS011;42507;51.982;20.140;2023-01-05T14:51:14;6.90;;;2.95;;
56637;SDS011;42507;51.982;20.140;2023-01-05T14:53:49;9.98;;;2.90;;
56637;SDS011;42507;51.982;20.140;2023-01-05T14:56:23;6.55;;;3.10;;
56637;SDS011;42507;51.982;20.140;2023-01-05T14:59:00;8.78;;;3.33;;
56637;SDS011;42507;51.982;20.140;2023-01-05T15:10:29;6.33;;;2.67;;
56637;SDS011;42507;51.982;20.140;2023-01-05T15:12:45;5.15;;;2.30;;
56637;SDS011;42507;51.982;20.140;2023-01-05T15:24:49;2.80;;;1.50;;
56637;SDS011;42507;51.982;20.140;2023-01-05T15:27:13;3.98;;;2.37;;
56637;SDS011;42507;51.982;20.140;2023-01-05T15:33:30;3.33;;;1.57;;
56637;SDS011;42507;51.982;20.140;2023-01-05T15:36:03;3.50;;;1.57;;
56637;SDS011;42507;51.982;20.140;2023-01-05T15:38:40;2.72;;;1.67;;
56637;SDS011;42507;51.982;20.140;2023-01-05T15:41:07;4.30;;;1.92;;
56637;SDS011;42507;51.982;20.140;2023-01-05T15:43:36;2.90;;;1.25;;
56637;SDS011;42507;51.982;20.140;2023-01-05T15:46:04;3.92;;;1.27;;
56637;SDS011;42507;51.982;20.140;2023-01-05T15:48:32;4.47;;;1.82;;
56637;SDS011;42507;51.982;20.140;2023-01-05T15:51:08;1.85;;;1.20;;
56637;SDS011;42507;51.982;20.140;2023-01-05T15:53:36;2.80;;;2.00;;
56637;SDS011;42507;51.982;20.140;2023-01-05T16:01:59;3.10;;;1.70;;
56637;SDS011;42507;51.982;20.140;2023-01-05T16:04:26;5.70;;;2.37;;
56637;SDS011;42507;51.982;20.140;2023-01-05T16:06:56;5.78;;;3.00;;
56637;SDS011;42507;51.982;20.140;2023-01-05T16:09:30;2.77;;;1.00;;
56637;SDS011;42507;51.982;20.140;2023-01-05T16:12:06;2.00;;;1.12;;
56637;SDS011;42507;51.982;20.140;2023-01-05T16:14:51;2.17;;;1.55;;
56637;SDS011;42507;51.982;20.140;2023-01-05T16:17:23;4.97;;;2.15;;
56637;SDS011;42507;51.982;20.140;2023-01-05T16:19:52;7.30;;;2.27;;
56637;SDS011;42507;51.982;20.140;2023-01-05T16:22:30;4.62;;;1.62;;
56637;SDS011;42507;51.982;20.140;2023-01-05T16:25:33;3.80;;;2.65;;
56637;SDS011;42507;51.982;20.140;2023-01-05T16:28:02;4.20;;;2.02;;
56637;SDS011;42507;51.982;20.140;2023-01-05T16:30:39;3.02;;;1.70;;
56637;SDS011;42507;51.982;20.140;2023-01-05T16:38:39;2.02;;;1.30;;
56637;SDS011;42507;51.982;20.140;2023-01-05T16:41:19;2.02;;;1.67;;
56637;SDS011;42507;51.982;20.140;2023-01-05T16:43:57;2.08;;;1.70;;
56637;SDS011;42507;51.982;20.140;2023-01-05T16:46:33;2.12;;;1.12;;
56637;SDS011;42507;51.982;20.140;2023-01-05T16:49:07;2.83;;;1.50;;
56637;SDS011;42507;51.982;20.140;2023-01-05T16:51:54;3.87;;;2.42;;
56637;SDS011;42507;51.982;20.140;2023-01-05T16:54:22;5.12;;;2.25;;
56637;SDS011;42507;51.982;20.140;2023-01-05T16:57:44;2.30;;;1.30;;
56637;SDS011;42507;51.982;20.140;2023-01-05T16:59:58;3.20;;;2.17;;
56637;SDS011;42507;51.982;20.140;2023-01-05T17:02:37;4.37;;;2.42;;
56637;SDS011;42507;51.982;20.140;2023-01-05T17:05:16;4.75;;;2.50;;
56637;SDS011;42507;51.982;20.140;2023-01-05T17:07:57;5.30;;;3.17;;
56637;SDS011;42507;51.982;20.140;2023-01-05T17:10:29;2.92;;;2.05;;
56637;SDS011;42507;51.982;20.140;2023-01-05T17:13:00;5.15;;;2.90;;
56637;SDS011;42507;51.982;20.140;2023-01-05T17:15:33;4.72;;;2.90;;
56637;SDS011;42507;51.982;20.140;2023-01-05T17:18:00;5.75;;;2.40;;
56637;SDS011;42507;51.982;20.140;2023-01-05T17:20:49;3.70;;;2.22;;
56637;SDS011;42507;51.982;20.140;2023-01-05T17:23:26;4.40;;;2.30;;
56637;SDS011;42507;51.982;20.140;2023-01-05T17:26:07;4.25;;;2.35;;
56637;SDS011;42507;51.982;20.140;2023-01-05T17:28:32;4.92;;;3.15;;
56637;SDS011;42507;51.982;20.140;2023-01-05T17:30:59;2.90;;;2.15;;
56637;SDS011;42507;51.982;20.140;2023-01-05T17:33:25;3.33;;;2.37;;
56637;SDS011;42507;51.982;20.140;2023-01-05T17:35:52;4.33;;;2.05;;
56637;SDS011;42507;51.982;20.140;2023-01-05T17:38:19;2.45;;;2.10;;
56637;SDS011;42507;51.982;20.140;2023-01-05T17:40:46;3.25;;;2.95;;
56637;SDS011;42507;51.982;20.140;2023-01-05T17:43:12;3.70;;;2.80;;
56637;SDS011;42507;51.982;20.140;2023-01-05T17:45:40;5.85;;;3.15;;
56637;SDS011;42507;51.982;20.140;2023-01-05T17:48:10;4.85;;;3.70;;
56637;SDS011;42507;51.982;20.140;2023-01-05T17:50:39;5.83;;;3.80;;
56637;SDS011;42507;51.982;20.140;2023-01-05T17:53:05;3.02;;;2.72;;
56637;SDS011;42507;51.982;20.140;2023-01-05T17:55:32;4.95;;;3.10;;
56637;SDS011;42507;51.982;20.140;2023-01-05T17:57:59;5.47;;;3.20;;
56637;SDS011;42507;51.982;20.140;2023-01-05T18:00:27;4.87;;;2.95;;
56637;SDS011;42507;51.982;20.140;2023-01-05T18:02:58;4.58;;;2.58;;
56637;SDS011;42507;51.982;20.140;2023-01-05T18:05:25;4.83;;;2.47;;